Time;durP1;ratioP1;P1;durP2;ratioP2;P2;SDS_P1;SDS_P2;PMS_P1;PMS_P2;Temp;Humidity;BMP_temperature;BMP_pressure;BME280_temperature;BME280_humidity;BME280_pressure;Samples;Min_cycle;Max_cycle;Signal;HPM_P1;HPM_P2
2021/11/16 00:00:10;;;;;;;13.93;7.32;;;10.60;99.90;;;;;;6247352;22;20087;-79
2021/11/16 00:02:36;;;;;;;14.63;7.75;;;10.60;99.90;;;;;;6247462;22;20385;-79
2021/11/16 00:05:02;;;;;;;12.52;7.20;;;10.50;99.90;;;;;;6247139;22;20064;-79
2021/11/16 00:07:28;;;;;;;11.75;7.50;;;10.50;99.90;;;;;;6247335;22;20058;-79
2021/11/16 00:09:54;;;;;;;11.13;7.32;;;10.50;99.90;;;;;;6247202;22;20500;-78
2021/11/16 00:12:20;;;;;;;11.65;7.10;;;10.50;99.90;;;;;;6247332;23;19996;-79
2021/11/16 00:14:47;;;;;;;18.50;7.32;;;10.40;99.90;;;;;;6245631;23;20051;-78
2021/11/16 00:17:14;;;;;;;11.38;7.50;;;10.40;99.90;;;;;;6247061;22;20008;-79
2021/11/16 00:19:40;;;;;;;9.32;6.60;;;10.40;99.90;;;;;;6245539;23;20004;-78
2021/11/16 00:22:08;;;;;;;12.23;7.60;;;10.40;99.90;;;;;;6247114;22;20020;-79
2021/11/16 00:24:45;;;;;;;12.57;7.88;;;10.40;99.90;;;;;;6245513;23;20008;-79
2021/11/16 00:27:11;;;;;;;11.55;7.47;;;10.40;99.90;;;;;;6247162;22;20000;-79
2021/11/16 00:29:37;;;;;;;10.27;6.95;;;10.40;99.90;;;;;;6247085;22;20042;-79
2021/11/16 00:32:06;;;;;;;13.10;7.10;;;10.40;99.90;;;;;;6245462;23;20000;-79
2021/11/16 00:34:32;;;;;;;11.43;7.32;;;10.40;99.90;;;;;;6245395;23;20004;-79
2021/11/16 00:36:58;;;;;;;11.93;7.72;;;10.40;99.90;;;;;;6245468;23;20026;-79
2021/11/16 00:39:24;;;;;;;11.60;7.45;;;10.40;99.90;;;;;;6247089;23;20336;-79
2021/11/16 00:41:49;;;;;;;12.23;7.50;;;10.40;99.90;;;;;;6245339;23;20011;-78
2021/11/16 00:44:16;;;;;;;15.73;7.85;;;10.40;99.90;;;;;;6245442;23;20481;-79
2021/11/16 00:46:42;;;;;;;12.10;6.85;;;10.40;99.90;;;;;;6245440;23;20394;-79
2021/11/16 00:49:07;;;;;;;11.63;7.20;;;10.30;99.90;;;;;;6246786;22;20000;-78
2021/11/16 00:51:33;;;;;;;12.18;7.07;;;10.30;99.90;;;;;;6246849;23;20126;-79
2021/11/16 00:53:59;;;;;;;9.80;7.03;;;10.30;99.90;;;;;;6246778;23;19999;-79
2021/11/16 00:56:25;;;;;;;12.57;6.78;;;10.30;99.90;;;;;;6245278;23;20050;-79
2021/11/16 00:58:51;;;;;;;11.05;7.88;;;10.30;99.90;;;;;;6246626;22;20071;-78
2021/11/16 01:01:17;;;;;;;12.35;6.93;;;10.30;99.90;;;;;;6245069;23;20336;-79
2021/11/16 01:03:43;;;;;;;13.32;7.68;;;10.30;99.90;;;;;;6246821;22;20004;-79
2021/11/16 01:06:08;;;;;;;14.20;8.05;;;10.30;99.90;;;;;;6245093;23;20061;-79
2021/11/16 01:08:35;;;;;;;11.88;7.38;;;10.30;99.90;;;;;;6246838;22;20309;-79
2021/11/16 01:11:01;;;;;;;11.10;7.13;;;10.30;99.90;;;;;;6246691;22;20000;-79
2021/11/16 01:13:28;;;;;;;12.35;7.13;;;10.30;99.90;;;;;;6246706;22;20337;-78
2021/11/16 01:15:55;;;;;;;11.02;7.70;;;10.30;99.90;;;;;;6246579;22;19996;-79
2021/11/16 01:18:24;;;;;;;12.23;7.82;;;10.20;99.90;;;;;;6246829;22;20000;-79
2021/11/16 01:20:50;;;;;;;15.77;8.25;;;10.30;99.90;;;;;;6246481;22;20098;-79
2021/11/16 01:23:18;;;;;;;13.20;7.75;;;10.30;99.90;;;;;;6245021;23;20008;-79
2021/11/16 01:25:45;;;;;;;13.82;8.00;;;10.30;99.90;;;;;;6246591;22;20007;-77
2021/11/16 01:28:13;;;;;;;12.88;8.27;;;10.40;99.90;;;;;;6247224;22;20031;-79
2021/11/16 01:30:48;;;;;;;12.07;7.57;;;10.40;99.90;;;;;;6245554;23;20058;-79
2021/11/16 01:33:18;;;;;;;13.82;7.57;;;10.40;99.90;;;;;;6244724;23;20031;-79
2021/11/16 01:35:47;;;;;;;11.77;7.72;;;10.40;99.90;;;;;;6246649;22;20000;-80
2021/11/16 01:38:19;;;;;;;12.73;7.80;;;10.40;99.90;;;;;;6246576;22;20432;-79
2021/11/16 01:40:46;;;;;;;14.73;8.48;;;10.40;99.90;;;;;;6245371;23;20008;-79
2021/11/16 01:43:12;;;;;;;16.52;8.00;;;10.40;99.90;;;;;;6246339;22;20444;-79
2021/11/16 01:45:38;;;;;;;12.38;8.25;;;10.30;99.90;;;;;;6245577;23;20000;-79
2021/11/16 01:48:06;;;;;;;16.25;8.05;;;10.30;99.90;;;;;;6244013;23;20426;-79
2021/11/16 01:50:32;;;;;;;16.27;7.85;;;10.40;99.90;;;;;;6245287;22;20059;-79
2021/11/16 01:52:58;;;;;;;13.40;8.07;;;10.40;99.90;;;;;;6245414;22;20046;-79
2021/11/16 01:55:24;;;;;;;14.77;8.63;;;10.40;99.90;;;;;;6245371;22;20376;-79
2021/11/16 01:57:52;;;;;;;14.07;8.27;;;10.40;99.90;;;;;;6245597;22;20075;-79
2021/11/16 02:00:25;;;;;;;12.48;8.15;;;10.40;99.90;;;;;;6245562;22;20066;-79
2021/11/16 02:02:52;;;;;;;12.00;8.23;;;10.40;99.90;;;;;;6245992;22;20027;-79
2021/11/16 02:05:18;;;;;;;13.85;9.27;;;10.40;99.90;;;;;;6246098;22;20007;-79
2021/11/16 02:07:47;;;;;;;14.43;8.68;;;10.40;99.90;;;;;;6246219;22;20059;-80
2021/11/16 02:10:15;;;;;;;13.02;8.80;;;10.30;99.90;;;;;;6244354;23;20041;-79
2021/11/16 02:12:41;;;;;;;13.00;7.95;;;10.40;99.90;;;;;;6246184;22;20379;-80
2021/11/16 02:15:09;;;;;;;11.95;8.20;;;10.40;99.90;;;;;;6246126;22;19996;-79
2021/11/16 02:17:37;;;;;;;15.45;8.02;;;10.30;99.90;;;;;;6245986;22;20376;-79
2021/11/16 02:20:04;;;;;;;14.57;8.23;;;10.30;99.90;;;;;;6246038;22;20436;-79
2021/11/16 02:22:31;;;;;;;11.23;7.57;;;10.30;99.90;;;;;;6246046;22;20043;-79
2021/11/16 02:24:57;;;;;;;13.93;8.82;;;10.30;99.90;;;;;;6244432;23;20058;-79
2021/11/16 02:27:23;;;;;;;13.68;8.35;;;10.30;99.90;;;;;;6246135;22;20008;-79
2021/11/16 02:29:49;;;;;;;13.27;7.90;;;10.30;99.90;;;;;;6245935;22;20079;-79
2021/11/16 02:32:14;;;;;;;14.85;8.82;;;10.40;99.90;;;;;;6245989;23;20035;-80
2021/11/16 02:34:40;;;;;;;20.10;8.32;;;10.40;99.90;;;;;;6245835;22;20050;-79
2021/11/16 02:37:06;;;;;;;13.32;7.97;;;10.30;99.90;;;;;;6245997;23;20003;-79
2021/11/16 02:39:31;;;;;;;17.75;8.05;;;10.30;99.90;;;;;;6244430;23;20008;-79
2021/11/16 02:41:57;;;;;;;10.95;7.32;;;10.30;99.90;;;;;;6245954;23;20015;-79
2021/11/16 02:44:23;;;;;;;11.82;7.60;;;10.30;99.90;;;;;;6245900;22;20071;-79
2021/11/16 02:46:51;;;;;;;14.82;9.43;;;10.30;99.90;;;;;;6245719;22;20011;-80
2021/11/16 02:49:18;;;;;;;16.73;8.18;;;10.30;99.90;;;;;;6245862;22;20032;-79
2021/11/16 02:51:44;;;;;;;15.15;7.80;;;10.30;99.90;;;;;;6245893;22;20000;-80
2021/11/16 02:54:15;;;;;;;14.25;8.32;;;10.30;99.90;;;;;;6245771;22;20054;-79
2021/11/16 02:56:43;;;;;;;13.88;8.15;;;10.30;99.90;;;;;;6245961;22;20003;-79
2021/11/16 02:59:09;;;;;;;19.17;8.65;;;10.30;99.90;;;;;;6244161;23;20086;-79
2021/11/16 03:01:36;;;;;;;15.98;8.45;;;10.40;99.90;;;;;;6245745;22;20004;-79
2021/11/16 03:04:02;;;;;;;11.90;7.47;;;10.30;99.90;;;;;;6245507;22;20028;-79
2021/11/16 03:06:28;;;;;;;11.18;7.40;;;10.30;99.90;;;;;;6245829;23;20007;-79
2021/11/16 03:08:54;;;;;;;15.20;8.13;;;10.30;99.90;;;;;;6245774;22;20004;-79
2021/11/16 03:11:20;;;;;;;12.52;7.72;;;10.30;99.90;;;;;;6245653;22;20631;-79
2021/11/16 03:13:46;;;;;;;16.48;8.40;;;10.40;99.90;;;;;;6243986;23;20436;-79
2021/11/16 03:16:18;;;;;;;11.68;7.68;;;10.30;99.90;;;;;;6245239;23;21291;-79
2021/11/16 03:18:54;;;;;;;12.57;7.93;;;10.30;99.90;;;;;;6245663;22;20051;-80
2021/11/16 03:21:24;;;;;;;15.02;7.70;;;10.30;99.90;;;;;;6245694;22;20000;-79
2021/11/16 03:23:51;;;;;;;10.90;7.40;;;10.30;99.90;;;;;;6243694;23;20004;-79
2021/11/16 03:26:19;;;;;;;13.27;7.60;;;10.30;99.90;;;;;;6244003;23;20007;-79
2021/11/16 03:28:49;;;;;;;11.88;7.32;;;10.30;99.90;;;;;;6243782;23;20440;-79
2021/11/16 03:31:36;;;;;;;15.82;8.45;;;10.30;99.90;;;;;;6245635;22;20000;-79
2021/11/16 03:34:03;;;;;;;11.88;7.75;;;10.20;99.90;;;;;;6243784;23;20008;-79
2021/11/16 03:36:29;;;;;;;11.57;6.95;;;10.20;99.90;;;;;;6244029;23;20054;-79
2021/11/16 03:38:57;;;;;;;15.55;7.97;;;10.20;99.90;;;;;;6243833;23;20008;-79
2021/11/16 03:41:23;;;;;;;12.00;8.30;;;10.20;99.90;;;;;;6243902;23;20011;-79
2021/11/16 03:43:51;;;;;;;17.80;7.82;;;10.20;99.90;;;;;;6243525;23;20015;-80
2021/11/16 03:46:17;;;;;;;11.52;7.38;;;10.20;99.90;;;;;;6243852;23;20057;-79
2021/11/16 03:48:43;;;;;;;12.63;7.72;;;10.20;99.90;;;;;;6243753;23;20008;-79
2021/11/16 03:51:09;;;;;;;12.77;7.90;;;10.20;99.90;;;;;;6244027;23;20547;-79
2021/11/16 03:53:35;;;;;;;11.65;6.85;;;10.20;99.90;;;;;;6243813;23;20001;-79
2021/11/16 03:56:01;;;;;;;11.95;8.00;;;10.20;99.90;;;;;;6245602;22;19997;-80
2021/11/16 03:58:27;;;;;;;10.73;7.10;;;10.20;99.90;;;;;;6243956;23;20364;-80
2021/11/16 04:00:59;;;;;;;9.52;6.68;;;10.10;99.90;;;;;;6243903;23;20079;-79
2021/11/16 04:03:28;;;;;;;12.75;7.40;;;10.20;99.90;;;;;;6245412;22;20103;-79
2021/11/16 04:05:54;;;;;;;13.98;8.52;;;10.20;99.90;;;;;;6245546;22;20004;-79
2021/11/16 04:08:20;;;;;;;12.82;7.88;;;10.10;99.90;;;;;;6243845;23;20004;-79
2021/11/16 04:10:48;;;;;;;14.55;8.27;;;10.10;99.90;;;;;;6245351;23;20007;-79
2021/11/16 04:13:13;;;;;;;14.75;8.00;;;10.20;99.90;;;;;;6243722;23;20023;-79
2021/11/16 04:15:40;;;;;;;12.77;7.35;;;10.10;99.90;;;;;;6243879;23;20448;-80
2021/11/16 04:18:08;;;;;;;12.55;7.22;;;10.20;99.90;;;;;;6243606;23;20070;-79
2021/11/16 04:20:37;;;;;;;9.68;7.10;;;10.20;99.90;;;;;;6245517;22;20004;-79
2021/11/16 04:23:06;;;;;;;12.68;7.53;;;10.10;99.90;;;;;;6243937;23;20065;-79
2021/11/16 04:25:33;;;;;;;9.75;6.80;;;10.20;99.90;;;;;;6245417;22;20059;-79
2021/11/16 04:28:00;;;;;;;12.95;6.43;;;10.20;99.90;;;;;;6245452;22;20140;-79
2021/11/16 04:30:27;;;;;;;12.98;7.30;;;10.20;99.90;;;;;;6245193;22;20335;-79
2021/11/16 04:32:53;;;;;;;10.85;7.10;;;10.20;99.90;;;;;;6243733;23;20031;-79
2021/11/16 04:35:19;;;;;;;9.32;6.32;;;10.20;99.90;;;;;;6246191;22;19996;-79
2021/11/16 04:37:49;;;;;;;8.57;6.40;;;10.20;99.90;;;;;;6247237;22;20503;-79
2021/11/16 04:40:19;;;;;;;10.93;7.38;;;10.10;99.90;;;;;;6247097;22;20027;-79
2021/11/16 04:42:45;;;;;;;10.93;7.13;;;10.10;99.90;;;;;;6247001;22;20027;-79
2021/11/16 04:45:17;;;;;;;11.98;7.50;;;10.10;99.90;;;;;;6247007;22;20440;-79
2021/11/16 04:50:27;;;;;;;12.85;7.57;;;10.10;99.90;;;;;;6248684;22;20596;-77
2021/11/16 05:03:46;;;;;;;12.73;7.65;;;10.00;99.90;;;;;;6246858;23;20035;-79
2021/11/16 05:06:12;;;;;;;13.60;8.30;;;9.90;99.90;;;;;;6246741;23;20012;-79
2021/11/16 05:08:40;;;;;;;12.82;8.18;;;10.00;99.90;;;;;;6246714;23;20053;-79
2021/11/16 05:11:08;;;;;;;15.00;8.85;;;10.00;99.90;;;;;;6245241;23;20004;-79
2021/11/16 05:13:34;;;;;;;11.70;8.07;;;9.90;99.90;;;;;;6245064;23;20005;-79
2021/11/16 05:16:05;;;;;;;18.83;8.65;;;9.90;99.90;;;;;;6246411;22;20071;-79
2021/11/16 05:18:31;;;;;;;11.95;8.05;;;9.90;99.90;;;;;;6246789;22;20000;-79
2021/11/16 05:20:57;;;;;;;12.52;7.95;;;9.90;99.90;;;;;;6246472;22;20011;-80
2021/11/16 05:23:23;;;;;;;15.05;8.90;;;9.90;99.90;;;;;;6246341;22;20008;-80
2021/11/16 05:25:51;;;;;;;13.52;8.27;;;9.90;99.90;;;;;;6246458;22;20004;-80
2021/11/16 05:28:18;;;;;;;11.35;7.07;;;9.90;99.90;;;;;;6245139;23;20004;-80
2021/11/16 05:30:45;;;;;;;12.07;8.32;;;9.90;99.90;;;;;;6246653;22;20332;-80
2021/11/16 05:33:12;;;;;;;15.05;8.45;;;9.90;99.90;;;;;;6246497;22;20003;-79
2021/11/16 05:35:38;;;;;;;13.90;8.63;;;9.90;99.90;;;;;;6246396;22;20371;-79
2021/11/16 05:38:03;;;;;;;19.00;9.10;;;9.90;99.90;;;;;;6246506;23;20000;-80
2021/11/16 05:40:29;;;;;;;16.13;9.55;;;10.00;99.90;;;;;;6246642;22;20027;-80
2021/11/16 05:42:55;;;;;;;16.55;9.18;;;9.90;99.90;;;;;;6246450;22;20000;-80
2021/11/16 05:45:21;;;;;;;14.32;8.85;;;10.00;99.90;;;;;;6246281;23;20000;-79
2021/11/16 05:47:47;;;;;;;15.20;9.00;;;10.00;99.90;;;;;;6246457;22;20081;-80
2021/11/16 05:50:14;;;;;;;15.00;9.23;;;10.00;99.90;;;;;;6246379;22;20030;-80
2021/11/16 05:52:40;;;;;;;14.13;8.52;;;10.00;99.90;;;;;;6244772;23;20028;-80
2021/11/16 05:55:08;;;;;;;16.08;8.93;;;10.00;99.90;;;;;;6246241;22;20004;-80
2021/11/16 05:57:35;;;;;;;13.73;8.77;;;10.00;99.90;;;;;;6246333;22;20428;-80
2021/11/16 06:00:02;;;;;;;13.48;8.23;;;10.00;99.90;;;;;;6244724;23;20008;-80
2021/11/16 06:02:28;;;;;;;15.65;8.35;;;10.00;99.90;;;;;;6244682;23;20011;-80
2021/11/16 06:04:54;;;;;;;15.55;8.60;;;10.00;99.90;;;;;;6244666;23;20008;-80
2021/11/16 06:07:19;;;;;;;12.45;7.60;;;10.10;99.90;;;;;;6244643;23;20008;-80
2021/11/16 06:09:45;;;;;;;12.32;7.97;;;10.10;99.90;;;;;;6246063;23;20000;-80
2021/11/16 06:12:11;;;;;;;11.55;7.55;;;10.10;99.90;;;;;;6246089;23;20082;-80
2021/11/16 06:14:38;;;;;;;17.63;8.75;;;10.10;99.90;;;;;;6244395;23;20053;-80
2021/11/16 06:17:05;;;;;;;16.05;8.50;;;10.10;99.90;;;;;;6244553;23;20016;-80
2021/11/16 06:19:35;;;;;;;18.73;8.75;;;10.10;99.90;;;;;;6244682;23;20087;-79
2021/11/16 06:22:03;;;;;;;16.10;9.05;;;10.10;99.90;;;;;;6246339;22;20035;-79
2021/11/16 06:24:29;;;;;;;15.23;8.88;;;10.10;99.90;;;;;;6246061;22;20029;-80
2021/11/16 06:26:54;;;;;;;17.52;9.65;;;10.10;99.90;;;;;;6244334;23;20008;-80
2021/11/16 06:29:20;;;;;;;14.65;8.02;;;10.10;99.90;;;;;;6245577;23;20004;-80
2021/11/16 06:31:46;;;;;;;14.63;8.43;;;10.10;99.90;;;;;;6245808;23;20420;-80
2021/11/16 06:34:12;;;;;;;18.77;8.80;;;10.10;99.90;;;;;;6245541;23;20000;-80
2021/11/16 06:36:40;;;;;;;16.55;10.18;;;10.10;99.90;;;;;;6245768;22;20075;-80
2021/11/16 06:39:17;;;;;;;21.30;10.10;;;10.10;99.90;;;;;;6245762;22;20004;-80
2021/11/16 06:41:43;;;;;;;13.48;9.05;;;10.20;99.90;;;;;;6245774;22;20020;-80
2021/11/16 06:44:12;;;;;;;18.15;10.02;;;10.20;99.90;;;;;;6244240;23;20008;-80
2021/11/16 06:46:39;;;;;;;17.80;9.52;;;10.20;99.90;;;;;;6245827;22;20000;-80
2021/11/16 06:49:07;;;;;;;19.05;9.60;;;10.20;99.90;;;;;;6244324;23;20004;-80
2021/11/16 06:51:37;;;;;;;14.93;9.30;;;10.20;99.90;;;;;;6244265;23;20000;-80
2021/11/16 06:54:15;;;;;;;16.55;9.60;;;10.30;99.90;;;;;;6244221;23;20323;-80
2021/11/16 06:56:42;;;;;;;17.17;10.20;;;10.30;99.90;;;;;;6245634;22;20000;-80
2021/11/16 06:59:08;;;;;;;16.73;10.00;;;10.30;99.90;;;;;;6245618;22;20400;-80
2021/11/16 07:01:37;;;;;;;16.45;9.00;;;10.40;99.90;;;;;;6245784;22;20008;-80
2021/11/16 07:04:09;;;;;;;17.38;10.23;;;10.40;99.90;;;;;;6244081;23;20091;-80
2021/11/16 07:06:40;;;;;;;17.20;10.65;;;10.40;99.90;;;;;;6245821;22;20012;-79
2021/11/16 07:09:07;;;;;;;16.02;10.10;;;10.50;99.90;;;;;;6245674;22;20031;-79
2021/11/16 07:11:46;;;;;;;21.58;10.40;;;10.50;99.90;;;;;;6245686;22;20001;-80
2021/11/16 07:14:14;;;;;;;17.17;10.15;;;10.50;99.90;;;;;;6243990;23;20011;-80
2021/11/16 07:16:51;;;;;;;24.10;10.75;;;10.60;99.90;;;;;;6245463;22;20035;-80
2021/11/16 07:19:17;;;;;;;18.92;10.07;;;10.60;99.90;;;;;;6245696;23;20486;-80
2021/11/16 07:21:45;;;;;;;21.00;10.73;;;10.60;99.90;;;;;;6244073;23;20036;-80
2021/11/16 07:24:14;;;;;;;19.88;10.32;;;10.60;99.90;;;;;;6244066;23;20091;-80
2021/11/16 07:26:42;;;;;;;19.63;10.27;;;10.60;99.90;;;;;;6245608;22;20004;-80
2021/11/16 07:29:30;;;;;;;19.13;10.50;;;10.70;99.90;;;;;;6245531;22;20024;-80
2021/11/16 07:31:56;;;;;;;17.17;10.00;;;10.70;99.90;;;;;;6244086;23;20000;-79
2021/11/16 07:34:22;;;;;;;18.60;10.40;;;10.70;99.90;;;;;;6245331;22;20007;-79
2021/11/16 07:36:59;;;;;;;19.73;10.90;;;10.70;99.90;;;;;;6244165;23;20325;-79
2021/11/16 07:39:26;;;;;;;21.05;10.77;;;10.70;99.90;;;;;;6243950;23;20130;-79
2021/11/16 07:42:06;;;;;;;23.33;11.18;;;10.80;99.90;;;;;;6245624;22;20004;-79
2021/11/16 07:44:33;;;;;;;20.20;11.48;;;10.80;99.90;;;;;;6245315;22;20008;-80
2021/11/16 07:46:59;;;;;;;22.67;11.55;;;10.80;99.90;;;;;;6245434;22;20078;-80
2021/11/16 07:49:25;;;;;;;18.92;10.50;;;10.90;99.90;;;;;;6243606;23;20008;-77
2021/11/16 07:51:53;;;;;;;20.58;11.85;;;10.90;99.90;;;;;;6245480;22;20554;-78
2021/11/16 07:54:28;;;;;;;21.00;10.65;;;10.90;99.90;;;;;;6245394;22;20435;-77
2021/11/16 07:57:04;;;;;;;17.58;10.48;;;11.00;99.90;;;;;;6243840;23;20004;-77
2021/11/16 07:59:31;;;;;;;22.95;10.73;;;11.00;99.90;;;;;;6245448;22;20562;-80
2021/11/16 08:07:10;;;;;;;22.45;11.43;;;11.10;99.90;;;;;;6246060;22;20444;-78
2021/11/16 08:14:35;;;;;;;21.73;12.10;;;11.30;99.90;;;;;;6245001;23;20024;-80
2021/11/16 08:17:03;;;;;;;22.27;11.98;;;11.30;99.90;;;;;;6242669;23;20016;-80
2021/11/16 08:19:32;;;;;;;20.48;11.90;;;11.30;99.90;;;;;;6243086;23;20694;-79
2021/11/16 08:22:00;;;;;;;22.27;12.38;;;11.40;99.90;;;;;;6243853;22;20499;-80
2021/11/16 08:24:33;;;;;;;25.52;11.70;;;11.50;99.90;;;;;;6243908;22;20054;-79
2021/11/16 08:27:00;;;;;;;22.20;11.95;;;11.50;99.90;;;;;;6243919;22;20036;-80
2021/11/16 08:29:30;;;;;;;30.90;11.60;;;11.50;99.90;;;;;;6243957;22;20023;-79
2021/11/16 08:32:11;;;;;;;23.30;11.50;;;11.50;99.90;;;;;;6244291;22;20050;-80
2021/11/16 08:34:42;;;;;;;24.60;11.68;;;11.50;99.90;;;;;;6244378;22;19996;-79
2021/11/16 08:37:09;;;;;;;24.05;11.95;;;11.60;99.90;;;;;;6243712;22;19996;-79
2021/11/16 08:39:40;;;;;;;26.27;12.48;;;11.60;99.90;;;;;;6243894;22;20462;-80
2021/11/16 08:42:22;;;;;;;24.17;12.13;;;11.60;99.90;;;;;;6244085;22;20000;-79
2021/11/16 08:45:09;;;;;;;25.75;13.15;;;11.60;99.90;;;;;;6241936;23;20015;-80
2021/11/16 08:47:40;;;;;;;29.13;13.45;;;11.60;99.90;;;;;;6241179;22;20008;-79
2021/11/16 08:50:18;;;;;;;25.60;12.00;;;11.60;99.90;;;;;;6241889;23;20004;-79
2021/11/16 08:52:44;;;;;;;24.90;12.90;;;11.70;99.90;;;;;;6243623;22;20058;-79
2021/11/16 08:55:12;;;;;;;23.70;12.40;;;11.70;99.90;;;;;;6244636;22;20558;-80
2021/11/16 08:57:43;;;;;;;29.10;13.35;;;11.70;99.90;;;;;;6242330;23;20011;-80
2021/11/16 09:00:23;;;;;;;23.65;12.70;;;11.70;99.90;;;;;;6242148;23;20091;-79
2021/11/16 09:02:51;;;;;;;24.20;12.65;;;11.80;99.90;;;;;;6243273;22;20054;-80
2021/11/16 09:05:19;;;;;;;28.77;14.48;;;11.80;99.90;;;;;;6242297;23;20011;-79
2021/11/16 09:07:54;;;;;;;26.02;13.95;;;11.80;99.90;;;;;;6244112;22;20591;-79
2021/11/16 09:10:20;;;;;;;22.77;12.75;;;11.80;99.90;;;;;;6243677;22;20000;-80
2021/11/16 09:12:47;;;;;;;25.20;14.18;;;11.80;99.90;;;;;;6243152;23;20555;-79
2021/11/16 09:15:41;;;;;;;26.38;13.18;;;11.90;99.90;;;;;;6241954;23;20004;-79
2021/11/16 09:18:14;;;;;;;30.58;14.18;;;11.90;99.90;;;;;;6228632;23;20070;-80
2021/11/16 09:20:53;;;;;;;24.83;13.48;;;11.90;99.90;;;;;;6243036;22;20082;-80
2021/11/16 09:23:23;;;;;;;27.08;13.63;;;11.90;99.90;;;;;;6242083;23;20000;-79
2021/11/16 09:25:51;;;;;;;28.15;14.27;;;11.90;99.90;;;;;;6243233;22;20432;-79
2021/11/16 09:28:36;;;;;;;30.88;14.48;;;11.90;99.90;;;;;;6243720;22;20004;-80
2021/11/16 09:31:21;;;;;;;29.17;14.48;;;12.00;99.90;;;;;;6241738;23;20012;-77
2021/11/16 09:33:49;;;;;;;28.08;15.27;;;12.00;99.90;;;;;;6243221;22;20004;-77
2021/11/16 09:36:36;;;;;;;33.42;15.50;;;12.00;99.90;;;;;;6244003;22;20003;-79
2021/11/16 09:39:30;;;;;;;31.30;15.55;;;12.00;99.90;;;;;;6241464;23;20015;-78
2021/11/16 09:41:58;;;;;;;24.13;14.38;;;12.00;99.90;;;;;;6241407;23;20336;-79
2021/11/16 09:44:41;;;;;;;27.58;15.05;;;12.00;99.90;;;;;;6243152;23;20007;-78
2021/11/16 09:47:17;;;;;;;33.92;15.57;;;12.10;99.90;;;;;;6241480;23;20000;-79
2021/11/16 09:49:53;;;;;;;27.77;14.45;;;12.10;99.90;;;;;;6242761;22;20030;-79
2021/11/16 09:52:42;;;;;;;29.52;15.90;;;12.10;99.90;;;;;;6242602;22;20079;-78
2021/11/16 09:55:35;;;;;;;25.35;14.02;;;12.10;99.90;;;;;;6243316;22;19996;-78
2021/11/16 09:58:04;;;;;;;31.55;15.68;;;12.20;99.90;;;;;;6251932;22;20010;-79
2021/11/16 10:00:30;;;;;;;29.77;15.85;;;12.20;99.90;;;;;;6243856;23;20019;-77
2021/11/16 10:03:05;;;;;;;30.75;16.40;;;12.20;99.90;;;;;;6244124;23;20008;-78
2021/11/16 10:05:38;;;;;;;29.17;16.27;;;12.20;99.90;;;;;;6245438;23;20053;-77
2021/11/16 10:08:06;;;;;;;30.55;16.20;;;12.30;99.90;;;;;;6245152;22;20030;-76
2021/11/16 10:10:35;;;;;;;26.40;14.68;;;12.30;99.90;;;;;;6245031;22;20011;-78
2021/11/16 10:13:08;;;;;;;27.65;14.80;;;12.30;99.90;;;;;;6244992;22;20482;-77
2021/11/16 10:15:37;;;;;;;23.92;13.57;;;12.40;99.90;;;;;;6244922;23;20032;-77
2021/11/16 10:18:03;;;;;;;25.77;14.27;;;12.40;99.90;;;;;;6246009;22;20022;-79
2021/11/16 10:20:33;;;;;;;30.98;15.10;;;12.40;99.90;;;;;;6246179;22;20015;-78
2021/11/16 10:23:01;;;;;;;33.10;15.77;;;12.50;99.90;;;;;;6245999;22;20003;-78
2021/11/16 10:25:33;;;;;;;33.05;15.05;;;12.50;99.90;;;;;;6246050;22;20000;-78
2021/11/16 10:28:08;;;;;;;35.35;16.30;;;12.50;99.90;;;;;;6242641;22;20000;-78
2021/11/16 10:30:35;;;;;;;34.75;17.13;;;12.50;99.90;;;;;;6244240;23;20004;-78
2021/11/16 10:33:11;;;;;;;37.08;15.50;;;12.50;99.90;;;;;;6246145;22;20000;-78
2021/11/16 10:35:57;;;;;;;26.80;14.73;;;12.50;99.90;;;;;;6245940;22;20000;-78
2021/11/16 10:38:29;;;;;;;30.05;15.65;;;12.60;99.90;;;;;;6244350;23;20004;-79
2021/11/16 10:40:57;;;;;;;35.05;15.68;;;12.60;99.90;;;;;;6245991;22;20008;-79
2021/11/16 10:43:33;;;;;;;29.40;16.35;;;12.60;99.90;;;;;;6245638;22;20024;-79
2021/11/16 10:46:03;;;;;;;29.70;15.90;;;12.70;99.90;;;;;;6244179;23;20004;-80
2021/11/16 10:48:29;;;;;;;38.45;17.27;;;12.70;99.90;;;;;;6245831;22;20371;-79
2021/11/16 10:50:55;;;;;;;32.40;15.55;;;12.80;99.90;;;;;;6245720;22;20027;-79
2021/11/16 10:53:45;;;;;;;30.85;17.20;;;12.80;99.90;;;;;;6243967;23;20024;-79
2021/11/16 10:56:15;;;;;;;28.15;17.02;;;12.80;99.90;;;;;;6245849;22;19996;-79
2021/11/16 10:58:41;;;;;;;30.27;15.75;;;12.80;99.90;;;;;;6244193;23;20024;-79
2021/11/16 11:01:13;;;;;;;27.98;16.05;;;12.90;99.90;;;;;;6245807;22;20058;-79
2021/11/16 11:03:45;;;;;;;30.37;16.30;;;12.90;99.90;;;;;;6245795;22;20317;-79
2021/11/16 11:06:21;;;;;;;32.42;16.15;;;12.90;99.90;;;;;;6241968;22;20691;-79
2021/11/16 11:08:51;;;;;;;31.90;16.25;;;12.90;99.90;;;;;;6243263;22;20011;-79
2021/11/16 11:11:19;;;;;;;31.58;15.82;;;13.00;99.90;;;;;;6242613;22;20008;-79
2021/11/16 11:13:52;;;;;;;36.97;16.58;;;13.10;99.90;;;;;;6242467;22;20024;-79
2021/11/16 11:16:18;;;;;;;;;;;13.10;99.90;;;;;;6241273;23;20040;-79
2021/11/16 11:18:48;;;;;;;28.50;16.25;;;13.10;99.90;;;;;;6243019;22;19910;-80
2021/11/16 11:21:37;;;;;;;30.50;15.95;;;13.10;99.90;;;;;;6241014;23;20452;-79
2021/11/16 11:24:38;;;;;;;34.13;16.20;;;13.10;99.90;;;;;;6241281;23;20027;-79
2021/11/16 11:30:08;;;;;;;30.25;16.25;;;13.10;99.90;;;;;;6242910;22;20016;-79
2021/11/16 11:32:41;;;;;;;33.38;16.15;;;13.10;99.90;;;;;;6241409;23;20001;-79
2021/11/16 11:35:12;;;;;;;31.35;16.30;;;13.10;99.90;;;;;;6241221;23;20000;-79
2021/11/16 11:37:53;;;;;;;29.10;15.43;;;13.10;99.90;;;;;;6245692;23;20440;-79
2021/11/16 11:40:19;;;;;;;30.85;16.00;;;13.10;99.90;;;;;;6244082;23;20011;-76
2021/11/16 11:43:00;;;;;;;28.80;15.63;;;13.10;99.90;;;;;;6244212;23;20004;-76
2021/11/16 11:45:30;;;;;;;30.83;14.63;;;13.10;99.90;;;;;;6246191;23;20095;-76
2021/11/16 11:47:59;;;;;;;31.42;15.70;;;13.10;99.90;;;;;;6248098;22;20075;-76
2021/11/16 11:50:30;;;;;;;28.13;14.63;;;13.10;99.90;;;;;;6247584;22;20000;-77
2021/11/16 11:52:59;;;;;;;28.70;14.85;;;13.10;99.90;;;;;;6245864;23;20003;-76
2021/11/16 11:55:26;;;;;;;27.05;13.23;;;13.10;99.90;;;;;;6247527;22;19996;-76
2021/11/16 11:57:52;;;;;;;23.35;13.15;;;13.00;99.90;;;;;;6247684;22;20188;-76
2021/11/16 12:00:18;;;;;;;21.67;13.00;;;13.00;99.90;;;;;;6247827;22;20000;-76
2021/11/16 12:02:47;;;;;;;29.10;12.98;;;12.90;99.90;;;;;;6247182;23;20131;-77
2021/11/16 12:05:13;;;;;;;25.50;13.20;;;12.90;99.90;;;;;;6247577;22;20091;-76
2021/11/16 12:07:39;;;;;;;20.95;12.60;;;12.90;99.90;;;;;;6242902;22;19996;-76
2021/11/16 12:10:06;;;;;;;22.52;12.02;;;13.00;99.90;;;;;;6243683;23;20000;-77
2021/11/16 12:12:32;;;;;;;21.15;12.35;;;13.00;99.90;;;;;;6244057;22;20480;-76
2021/11/16 12:15:20;;;;;;;23.40;12.80;;;12.90;99.90;;;;;;6242032;23;20004;-76
2021/11/16 12:17:56;;;;;;;24.65;12.00;;;13.00;99.90;;;;;;6242617;23;20008;-76
2021/11/16 12:20:42;;;;;;;25.02;13.10;;;13.00;99.90;;;;;;6244385;22;20027;-76
2021/11/16 12:23:19;;;;;;;25.45;13.45;;;13.00;99.90;;;;;;6243951;22;20000;-76
2021/11/16 12:25:47;;;;;;;22.95;12.05;;;13.00;99.90;;;;;;6243977;22;20126;-76
2021/11/16 12:28:29;;;;;;;22.38;13.05;;;13.00;99.90;;;;;;6244514;23;20007;-76
2021/11/16 12:30:56;;;;;;;;;;;13.00;99.90;;;;;;6246329;23;20031;-76
2021/11/16 12:33:37;;;;;;;23.90;12.65;;;13.00;99.90;;;;;;6247399;22;19899;-76
2021/11/16 12:36:04;;;;;;;22.13;13.10;;;13.00;99.90;;;;;;6247325;22;20000;-76
2021/11/16 12:38:39;;;;;;;22.70;13.10;;;13.00;99.90;;;;;;6247346;22;20455;-77
2021/11/16 12:41:27;;;;;;;26.38;13.07;;;12.90;99.90;;;;;;6245757;23;20004;-77
2021/11/16 12:43:55;;;;;;;22.70;13.23;;;12.90;99.90;;;;;;6247151;23;20336;-76
2021/11/16 12:46:23;;;;;;;21.52;11.57;;;13.00;99.90;;;;;;6247190;22;20027;-77
2021/11/16 12:48:55;;;;;;;19.90;12.23;;;13.00;99.90;;;;;;6245623;23;20497;-76
2021/11/16 12:51:24;;;;;;;;;;;13.00;99.90;;;;;;6247672;22;20007;-76
2021/11/16 12:54:09;;;;;;;23.95;13.15;;;12.90;99.90;;;;;;6247181;22;19906;-77
2021/11/16 12:56:45;;;;;;;24.42;12.80;;;12.90;99.90;;;;;;6244573;23;20332;-77
2021/11/16 12:59:42;;;;;;;23.30;13.48;;;12.90;99.90;;;;;;6245396;23;20066;-77
2021/11/16 13:02:28;;;;;;;25.65;13.43;;;12.90;99.90;;;;;;6246544;23;20075;-77
2021/11/16 13:05:06;;;;;;;26.02;14.50;;;12.80;99.90;;;;;;6246258;23;20004;-77
2021/11/16 13:07:37;;;;;;;29.38;15.68;;;12.80;99.90;;;;;;6246782;22;20414;-77
2021/11/16 13:10:02;;;;;;;31.20;14.93;;;12.80;99.90;;;;;;6246356;22;20082;-77
2021/11/16 13:12:43;;;;;;;30.73;16.40;;;12.70;99.90;;;;;;6240699;23;20005;-78